الصفحة الرئيسية
METAR-TAF:

METAR-TAF

مطار :

مطار كوناكري الدولي

كوناكري, غينيا

دائرة عرض: 09-34N, خط طول: 013-37W, ارتفاع: 26 متر

مراقبة الطقس الحالي

تاريخ ووقت الإصدار 54 دقيقة قبل الساعة 22:00UTC
رياح هادئة
درجة الحرارة 26°درجة مئوية
الرطوبة 89%
ضغط 1015 hPa
الرؤية 10 كم أو أكثر
غيوم متفرقة على ارتفاع 1500 قدم

METAR: GUCY 152200Z 00000KT 9999 SCT015 26/24 Q1015 NOSIG

زمن: 22:54 (22:54 UTC)

توقعات

تاريخ ووقت الإصدار 5ساعات و 54 دقيقة قبل الساعة 17:00UTC
التوقعات صالحة من15 الساعة 18 UTC إلى 16 الساعة 24 UTC
ريح 8 عقدة من الجنوب الغربي
الرؤية 10 كم أو أكثر
غيوم متفرقة على ارتفاع 1500 قدم
غيوم متفرقة على ارتفاع 11000 قدم
نظرية الاحتمالات 30%
من 15 الساعة 23 UTC إلى 16 الساعة 03 UTC
الرؤية: 6000 متر
غيوم مفككة على ارتفاع 1300 قدم
مطر خفيف
أصبح
من 16 الساعة 05 UTC إلى 16 الساعة 09 UTC
ريح 2 عقدةمن اتجاهات متغيرة
الرؤية: 5000 متر
غيوم مفككة على ارتفاع 1200 قدم
ملبد بالغيوم على ارتفاع 10000 قدم
مطر خفيف

TAF: GUCY 151700Z 1518/1624 23008KT 9999 SCT015 SCT110 PROB30TEMPO 1523/1603 6000 -RA BKN013 BECMG 1605/1609 VRB02KT 5000 -RA BKN012 OVC100

أرصاد الطقس والتوقعات من أكثر من 4000 مطار (تقارير الطقس للمطار METAR والتنبؤ بالطقس بالمطارTAF).

المحطات المتاحة هي النقط الصفراء والحمراء على الخريطة.

حرك المؤشر فوق النقطة لمعرفة اسم المحطة.

ثم انقر لمعرفة أرصاد وتوقعات الطقس.

لتغيير الخارطة: اضغط على الأزرار الخضراء مع رمز الصليب الأسود للتكبير. على الزر الأخضر مع شرطة للتصغير، أو على الأسهم الخضراء للخرائط المجاورة.


METAR-TAF: